Observation data for Dora on 07/12/2020      Previous  Date  Next       Current Mesonet Observations  Soil Data  Daily Summary Page  Observations in Plain Language
KDR1 120500Z 20006G11KT 33/05 A3012 RMK A01 T03310048  RH  017%=      5-min Rain = 0
KDR1 120505Z 20007G15KT 33/05 A3012 RMK A01 T03270050  RH  018%=      5-min Rain = 0
KDR1 120510Z 18006G11KT 32/05 A3013 RMK A01 T03240050  RH  018%=      5-min Rain = 0
KDR1 120515Z 19005KT 32/05 A3013 RMK A01 T03240050  RH  018%=      5-min Rain = 0
KDR1 120520Z 13002KT 32/05 A3013 RMK A01 T03180051  RH  019%=      5-min Rain = 0
KDR1 120525Z 12003KT 32/05 A3013 RMK A01 T03150051  RH  019%=      5-min Rain = 0
KDR1 120530Z 15002KT 32/05 A3013 RMK A01 T03170051  RH  019%=      5-min Rain = 0
KDR1 120535Z 00001KT 32/05 A3013 RMK A01 T03190052  RH  019%=      5-min Rain = 0
KDR1 120540Z 00002KT 31/05 A3014 RMK A01 T03100053  RH  020%=      5-min Rain = 0
KDR1 120545Z 01002KT 31/05 A3014 RMK A01 T03120052  RH  020%=      5-min Rain = 0
KDR1 120550Z 29001KT 32/05 A3014 RMK A01 T03150052  RH  020%=      5-min Rain = 0
KDR1 120555Z 28004KT 32/05 A3013 RMK A01 T03190053  RH  019%=      5-min Rain = 0
KDR1 120600Z 22005KT 32/05 A3013 RMK A01 T03210053  RH  019%=      5-min Rain = 0
KDR1 120605Z 27005KT 32/05 A3013 RMK A01 T03170054  RH  020%=      5-min Rain = 0
KDR1 120610Z 25006KT 31/06 A3014 RMK A01 T03110055  RH  020%=      5-min Rain = 0
KDR1 120615Z 23003G8KT 31/06 A3014 RMK A01 T03110055  RH  020%=      5-min Rain = 0
KDR1 120620Z 29003KT 31/06 A3014 RMK A01 T03090056  RH  021%=      5-min Rain = 0
KDR1 120625Z 26005KT 31/06 A3014 RMK A01 T03120056  RH  020%=      5-min Rain = 0
KDR1 120630Z 25002KT 31/06 A3015 RMK A01 T03090056  RH  021%=      5-min Rain = 0
KDR1 120635Z 28001KT 31/06 A3015 RMK A01 T03070055  RH  021%=      5-min Rain = 0
KDR1 120640Z 29003KT 30/06 A3015 RMK A01 T03010060  RH  022%=      5-min Rain = 0
KDR1 120645Z 24005KT 30/06 A3015 RMK A01 T02960059  RH  023%=      5-min Rain = 0
KDR1 120650Z 21005KT 30/06 A3014 RMK A01 T02990058  RH  022%=      5-min Rain = 0
KDR1 120655Z 19005KT 30/06 A3014 RMK A01 T02980058  RH  023%=      5-min Rain = 0
KDR1 120700Z 19006KT 29/06 A3014 RMK A01 T02860059  RH  024%=      5-min Rain = 0
KDR1 120705Z 18008KT 28/06 A3013 RMK A01 T02790060  RH  025%=      5-min Rain = 0
KDR1 120710Z 17008KT 28/06 A3013 RMK A01 T02760060  RH  026%=      5-min Rain = 0
KDR1 120715Z 16007KT 28/06 A3013 RMK A01 T02770061  RH  026%=      5-min Rain = 0
KDR1 120720Z 15008KT 27/06 A3013 RMK A01 T02710063  RH  027%=      5-min Rain = 0
KDR1 120725Z 14008KT 27/07 A3013 RMK A01 T02670065  RH  028%=      5-min Rain = 0
KDR1 120730Z 14009KT 27/07 A3013 RMK A01 T02690066  RH  028%=      5-min Rain = 0
KDR1 120735Z 15008KT 27/07 A3013 RMK A01 T02730065  RH  027%=      5-min Rain = 0
KDR1 120740Z 16008KT 27/07 A3013 RMK A01 T02720066  RH  028%=      5-min Rain = 0
KDR1 120745Z 15007KT 27/07 A3013 RMK A01 T02730066  RH  027%=      5-min Rain = 0
KDR1 120750Z 15007KT 27/07 A3013 RMK A01 T02710067  RH  028%=      5-min Rain = 0
KDR1 120755Z 14007KT 27/07 A3013 RMK A01 T02660067  RH  029%=      5-min Rain = 0
KDR1 120800Z 14007KT 27/07 A3013 RMK A01 T02650068  RH  029%=      5-min Rain = 0
KDR1 120805Z 15007KT 26/07 A3013 RMK A01 T02630069  RH  030%=      5-min Rain = 0
KDR1 120810Z 15008KT 26/07 A3013 RMK A01 T02630069  RH  030%=      5-min Rain = 0
KDR1 120815Z 14008KT 26/07 A3013 RMK A01 T02630071  RH  030%=      5-min Rain = 0
KDR1 120820Z 14008KT 27/07 A3013 RMK A01 T02650072  RH  030%=      5-min Rain = 0
KDR1 120825Z 14008KT 26/07 A3013 RMK A01 T02630073  RH  031%=      5-min Rain = 0
KDR1 120830Z 14008KT 26/07 A3013 RMK A01 T02630073  RH  031%=      5-min Rain = 0
KDR1 120835Z 15008KT 26/07 A3013 RMK A01 T02640073  RH  030%=      5-min Rain = 0
KDR1 120840Z 14008KT 27/07 A3012 RMK A01 T02670072  RH  030%=      5-min Rain = 0
KDR1 120845Z 14008KT 27/07 A3012 RMK A01 T02660072  RH  030%=      5-min Rain = 0
KDR1 120850Z 14008KT 27/07 A3012 RMK A01 T02650072  RH  030%=      5-min Rain = 0
KDR1 120855Z 14008KT 26/07 A3012 RMK A01 T02640072  RH  030%=      5-min Rain = 0
KDR1 120900Z 15007KT 26/07 A3012 RMK A01 T02630073  RH  031%=      5-min Rain = 0
KDR1 120905Z 14007KT 26/07 A3012 RMK A01 T02640074  RH  031%=      5-min Rain = 0
KDR1 120910Z 15008KT 26/07 A3011 RMK A01 T02640074  RH  031%=      5-min Rain = 0
KDR1 120915Z 15008KT 27/07 A3011 RMK A01 T02650074  RH  030%=      5-min Rain = 0
KDR1 120920Z 15009KT 26/07 A3011 RMK A01 T02640074  RH  031%=      5-min Rain = 0
KDR1 120925Z 15010G15KT 27/07 A3011 RMK A01 T02650074  RH  031%=      5-min Rain = 0
KDR1 120930Z 15009KT 27/08 A3011 RMK A01 T02660075  RH  030%=      5-min Rain = 0
KDR1 120935Z 14009KT 27/07 A3011 RMK A01 T02650074  RH  031%=      5-min Rain = 0
KDR1 120940Z 14008KT 26/08 A3011 RMK A01 T02630075  RH  031%=      5-min Rain = 0
KDR1 120945Z 14009KT 26/08 A3011 RMK A01 T02620075  RH  031%=      5-min Rain = 0
KDR1 120950Z 14009KT 26/08 A3011 RMK A01 T02620076  RH  032%=      5-min Rain = 0
KDR1 120955Z 14009KT 26/08 A3011 RMK A01 T02620075  RH  031%=      5-min Rain = 0
KDR1 121000Z 14008KT 26/08 A3011 RMK A01 T02610076  RH  032%=      5-min Rain = 0
KDR1 121005Z 14008KT 26/08 A3011 RMK A01 T02590076  RH  032%=      5-min Rain = 0
KDR1 121010Z 14008KT 26/08 A3011 RMK A01 T02570077  RH  033%=      5-min Rain = 0
KDR1 121015Z 14009KT 26/08 A3011 RMK A01 T02550077  RH  033%=      5-min Rain = 0
KDR1 121020Z 14009KT 25/08 A3011 RMK A01 T02540078  RH  034%=      5-min Rain = 0
KDR1 121025Z 14008KT 25/08 A3011 RMK A01 T02520078  RH  034%=      5-min Rain = 0
KDR1 121030Z 14009KT 25/08 A3011 RMK A01 T02520078  RH  034%=      5-min Rain = 0
KDR1 121035Z 15010KT 25/08 A301 RMK A01 T02520079  RH  034%=      5-min Rain = 0
KDR1 121040Z 15011KT 26/08 A301 RMK A01 T02560079  RH  033%=      5-min Rain = 0
KDR1 121045Z 15011KT 25/08 A301 RMK A01 T02540079  RH  034%=      5-min Rain = 0
KDR1 121050Z 15010KT 25/08 A301 RMK A01 T02530079  RH  034%=      5-min Rain = 0
KDR1 121055Z 15009KT 25/08 A301 RMK A01 T02500079  RH  035%=      5-min Rain = 0
KDR1 121100Z 14010KT 25/08 A301 RMK A01 T02470080  RH  035%=      5-min Rain = 0
KDR1 121105Z 14010KT 25/08 A301 RMK A01 T02450080  RH  036%=      5-min Rain = 0
KDR1 121110Z 14011KT 25/08 A301 RMK A01 T02450080  RH  036%=      5-min Rain = 0
KDR1 121115Z 14011KT 24/08 A301 RMK A01 T02420081  RH  037%=      5-min Rain = 0
KDR1 121120Z 14011KT 24/08 A301 RMK A01 T02400081  RH  037%=      5-min Rain = 0
KDR1 121125Z 14010KT 24/08 A301 RMK A01 T02390081  RH  038%=      5-min Rain = 0
KDR1 121130Z 14010KT 24/08 A301 RMK A01 T02380082  RH  038%=      5-min Rain = 0
KDR1 121135Z 14010KT 24/08 A301 RMK A01 T02360082  RH  038%=      5-min Rain = 0
KDR1 121140Z 15010KT 23/08 A301 RMK A01 T02340082  RH  039%=      5-min Rain = 0
KDR1 121145Z 15010KT 23/08 A301 RMK A01 T02340082  RH  039%=      5-min Rain = 0
KDR1 121150Z 15010KT 23/08 A301 RMK A01 T02320082  RH  039%=      5-min Rain = 0
KDR1 121155Z 15010KT 23/08 A301 RMK A01 T02290083  RH  040%=      5-min Rain = 0
KDR1 121200Z 15010KT 23/08 A301 RMK A01 T02260083  RH  041%=      5-min Rain = 0
KDR1 121205Z 15010KT 23/09 A301 RMK A01 T02250085  RH  042%=      5-min Rain = 0
KDR1 121210Z 14012KT 23/09 A301 RMK A01 T02270086  RH  042%=      5-min Rain = 0
KDR1 121215Z 14011KT 22/09 A301 RMK A01 T02240087  RH  043%=      5-min Rain = 0
KDR1 121220Z 14012KT 22/09 A301 RMK A01 T02240088  RH  043%=      5-min Rain = 0
KDR1 121225Z 14013KT 22/09 A301 RMK A01 T02240089  RH  043%=      5-min Rain = 0
KDR1 121230Z 15014KT 23/09 A301 RMK A01 T02290090  RH  042%=      5-min Rain = 0
KDR1 121235Z 15013KT 23/09 A301 RMK A01 T02300090  RH  042%=      5-min Rain = 0
KDR1 121240Z 15013KT 23/09 A3011 RMK A01 T02310091  RH  042%=      5-min Rain = 0
KDR1 121245Z 16013KT 23/09 A3011 RMK A01 T02320091  RH  042%=      5-min Rain = 0
KDR1 121250Z 15013KT 23/09 A3011 RMK A01 T02330092  RH  042%=      5-min Rain = 0
KDR1 121255Z 15012KT 24/09 A3011 RMK A01 T02360093  RH  041%=      5-min Rain = 0
KDR1 121300Z 15013G19KT 24/09 A3011 RMK A01 T02420093  RH  040%=      5-min Rain = 0
KDR1 121305Z 15013KT 25/09 A3011 RMK A01 T02460094  RH  039%=      5-min Rain = 0
KDR1 121310Z 15013KT 25/10 A3011 RMK A01 T02500095  RH  039%=      5-min Rain = 0
KDR1 121315Z 15013KT 25/10 A3011 RMK A01 T02530095  RH  038%=      5-min Rain = 0
KDR1 121320Z 16015KT 26/10 A3011 RMK A01 T02550096  RH  038%=      5-min Rain = 0
KDR1 121325Z 17014KT 26/10 A3011 RMK A01 T02580098  RH  037%=      5-min Rain = 0
KDR1 121330Z 17014KT 26/10 A3011 RMK A01 T02570097  RH  038%=      5-min Rain = 0
KDR1 121335Z 17015KT 26/10 A3011 RMK A01 T02580097  RH  037%=      5-min Rain = 0
KDR1 121340Z 18014KT 26/10 A3011 RMK A01 T02620096  RH  036%=      5-min Rain = 0
KDR1 121345Z 18016KT 27/09 A3011 RMK A01 T02650092  RH  035%=      5-min Rain = 0
KDR1 121350Z 17015KT 27/09 A3011 RMK A01 T02710094  RH  034%=      5-min Rain = 0
KDR1 121355Z 18016KT 28/09 A3011 RMK A01 T02770092  RH  032%=      5-min Rain = 0
KDR1 121400Z 18015G20KT 28/09 A3011 RMK A01 T02810093  RH  032%=      5-min Rain = 0
KDR1 121405Z 18015KT 29/09 A3011 RMK A01 T02850092  RH  031%=      5-min Rain = 0
KDR1 121410Z 18016KT 29/09 A3011 RMK A01 T02860089  RH  030%=      5-min Rain = 0
KDR1 121415Z 17015KT 29/09 A3012 RMK A01 T02880090  RH  030%=      5-min Rain = 0
KDR1 121420Z 18013KT 29/09 A3012 RMK A01 T02890091  RH  030%=      5-min Rain = 0
KDR1 121425Z 19012KT 29/09 A3012 RMK A01 T02920092  RH  030%=      5-min Rain = 0
KDR1 121430Z 19012KT 30/09 A3012 RMK A01 T02950094  RH  030%=      5-min Rain = 0
KDR1 121435Z 19011KT 30/09 A3012 RMK A01 T02950094  RH  030%=      5-min Rain = 0
KDR1 121440Z 19011KT 30/09 A3013 RMK A01 T02980094  RH  029%=      5-min Rain = 0
KDR1 121445Z 19011KT 30/09 A3013 RMK A01 T03030093  RH  028%=      5-min Rain = 0
KDR1 121450Z 18008KT 31/09 A3013 RMK A01 T03080094  RH  027%=      5-min Rain = 0
KDR1 121455Z 19008KT 31/09 A3013 RMK A01 T03120093  RH  027%=      5-min Rain = 0
KDR1 121500Z 18009KT 32/09 A3013 RMK A01 T03150091  RH  026%=      5-min Rain = 0
KDR1 121505Z 19010KT 32/09 A3013 RMK A01 T03210087  RH  024%=      5-min Rain = 0
KDR1 121510Z 19011KT 33/09 A3013 RMK A01 T03250085  RH  023%=      5-min Rain = 0
KDR1 121515Z 19012KT 33/08 A3012 RMK A01 T03290084  RH  023%=      5-min Rain = 0
KDR1 121520Z 18010KT 33/09 A3013 RMK A01 T03300085  RH  023%=      5-min Rain = 0
KDR1 121525Z 19012G17KT 33/08 A3013 RMK A01 T03340079  RH  021%=      5-min Rain = 0
KDR1 121530Z 20012KT 34/07 A3012 RMK A01 T03390072  RH  020%=      5-min Rain = 0
KDR1 121535Z 22011G16KT 34/07 A3012 RMK A01 T03400069  RH  019%=      5-min Rain = 0
KDR1 121540Z 21011G16KT 34/07 A3012 RMK A01 T03420069  RH  019%=      5-min Rain = 0
KDR1 121545Z 22011G16KT 34/07 A3012 RMK A01 T03410065  RH  019%=      5-min Rain = 0
KDR1 121550Z 21011G16KT 34/07 A3012 RMK A01 T03440065  RH  018%=      5-min Rain = 0
KDR1 121555Z 20010G15KT 35/07 A3012 RMK A01 T03470066  RH  018%=      5-min Rain = 0
KDR1 121600Z 21011G16KT 35/06 A3012 RMK A01 T03510064  RH  017%=      5-min Rain = 0
KDR1 121605Z 20010KT 35/06 A3012 RMK A01 T03460063  RH  018%=      5-min Rain = 0
KDR1 121610Z 22008G13KT 35/07 A3012 RMK A01 T03500066  RH  018%=      5-min Rain = 0
KDR1 121615Z 20009G14KT 35/07 A3012 RMK A01 T03520066  RH  018%=      5-min Rain = 0
KDR1 121620Z 19011KT 35/07 A3012 RMK A01 T03520067  RH  018%=      5-min Rain = 0
KDR1 121625Z 18011KT 35/07 A3012 RMK A01 T03520066  RH  018%=      5-min Rain = 0
KDR1 121630Z 17011G17KT 36/07 A3012 RMK A01 T03590066  RH  017%=      5-min Rain = 0
KDR1 121635Z 18014G19KT 36/06 A3011 RMK A01 T03600063  RH  016%=      5-min Rain = 0
KDR1 121640Z 18014KT 36/07 A3011 RMK A01 T03630068  RH  017%=      5-min Rain = 0
KDR1 121645Z 16015G21KT 35/09 A3011 RMK A01 T03540086  RH  020%=      5-min Rain = 0
KDR1 121650Z 16015G21KT 36/08 A3011 RMK A01 T03550084  RH  020%=      5-min Rain = 0
KDR1 121655Z 16014G21KT 36/08 A3011 RMK A01 T03590081  RH  019%=      5-min Rain = 0
KDR1 121700Z 18013G20KT 36/08 A3011 RMK A01 T03620078  RH  018%=      5-min Rain = 0
KDR1 121705Z 17012G17KT 36/08 A301 RMK A01 T03620078  RH  018%=      5-min Rain = 0
KDR1 121710Z 18015G21KT 37/07 A301 RMK A01 T03680068  RH  016%=      5-min Rain = 0
KDR1 121715Z 20014G19KT 37/07 A301 RMK A01 T03700065  RH  016%=      5-min Rain = 0
KDR1 121720Z 21013G19KT 37/06 A301 RMK A01 T03700061  RH  015%=      5-min Rain = 0
KDR1 121725Z 18016G23KT 37/08 A301 RMK A01 T03690082  RH  018%=      5-min Rain = 0
KDR1 121730Z 17015G21KT 36/09 A3009 RMK A01 T03640086  RH  019%=      5-min Rain = 0
KDR1 121735Z 17016G21KT 37/09 A3009 RMK A01 T03670085  RH  019%=      5-min Rain = 0
KDR1 121740Z 17016G22KT 37/08 A3009 RMK A01 T03690084  RH  018%=      5-min Rain = 0
KDR1 121745Z 17018G25KT 37/08 A3009 RMK A01 T03710081  RH  018%=      5-min Rain = 0
KDR1 121750Z 17019G26KT 37/08 A3008 RMK A01 T03740079  RH  017%=      5-min Rain = 0
KDR1 121755Z 17017G23KT 37/08 A3008 RMK A01 T03720076  RH  017%=      5-min Rain = 0
KDR1 121800Z 16016G23KT 38/07 A3008 RMK A01 T03750074  RH  016%=      5-min Rain = 0
KDR1 121805Z 17015G24KT 38/07 A3008 RMK A01 T03760074  RH  016%=      5-min Rain = 0
KDR1 121810Z 20015G24KT 38/07 A3008 RMK A01 T03800071  RH  016%=      5-min Rain = 0
KDR1 121815Z 19016G23KT 38/07 A3008 RMK A01 T03830072  RH  016%=      5-min Rain = 0
KDR1 121820Z 18014G21KT 38/06 A3008 RMK A01 T03840062  RH  014%=      5-min Rain = 0
KDR1 121825Z 20016G22KT 39/05 A3007 RMK A01 T03910051  RH  013%=      5-min Rain = 0
KDR1 121830Z 23015G21KT 39/05 A3007 RMK A01 T03900048  RH  013%=      5-min Rain = 0
KDR1 121835Z 22015G23KT 39/05 A3007 RMK A01 T03940045  RH  012%=      5-min Rain = 0
KDR1 121840Z 23013G18KT 39/05 A3007 RMK A01 T03860046  RH  013%=      5-min Rain = 0
KDR1 121845Z 21014G21KT 39/05 A3007 RMK A01 T03930045  RH  012%=      5-min Rain = 0
KDR1 121850Z 22018G24KT 40/04 A3006 RMK A01 T03980039  RH  011%=      5-min Rain = 0
KDR1 121855Z 22015G23KT 40/04 A3006 RMK A01 T03950039  RH  011%=      5-min Rain = 0
KDR1 121900Z 21012G21KT 39/04 A3006 RMK A01 T03910041  RH  012%=      5-min Rain = 0
KDR1 121905Z 24013G19KT 39/04 A3006 RMK A01 T03910041  RH  012%=      5-min Rain = 0
KDR1 121910Z 23016G23KT 39/04 A3005 RMK A01 T03930039  RH  012%=      5-min Rain = 0
KDR1 121915Z 23019G24KT 40/03 A3005 RMK A01 T03950032  RH  011%=      5-min Rain = 0
KDR1 121920Z 23019G24KT 39/03 A3005 RMK A01 T03940031  RH  011%=      5-min Rain = 0
KDR1 121925Z 22015G23KT 40/03 A3005 RMK A01 T03950031  RH  011%=      5-min Rain = 0
KDR1 121930Z 24017G25KT 40/03 A3004 RMK A01 T03990031  RH  011%=      5-min Rain = 0
KDR1 121935Z 23022G29KT 40/03 A3004 RMK A01 T03970034  RH  011%=      5-min Rain = 0
KDR1 121940Z 23016G21KT 39/04 A3004 RMK A01 T03940035  RH  011%=      5-min Rain = 0
KDR1 121945Z 24020G27KT 40/03 A3004 RMK A01 T03990034  RH  011%=      5-min Rain = 0
KDR1 121950Z 24018G23KT 40/03 A3004 RMK A01 T03970031  RH  011%=      5-min Rain = 0
KDR1 121955Z 24017G24KT 40/04 A3003 RMK A01 T03990035  RH  011%=      5-min Rain = 0
KDR1 122000Z 24019G25KT 40/04 A3003 RMK A01 T04000036  RH  011%=      5-min Rain = 0
KDR1 122005Z 24017G22KT 40/04 A3003 RMK A01 T03960038  RH  011%=      5-min Rain = 0
KDR1 122010Z 24019G24KT 40/04 A3003 RMK A01 T03990037  RH  011%=      5-min Rain = 0
KDR1 122015Z 23014G21KT 40/04 A3003 RMK A01 T03960035  RH  011%=      5-min Rain = 0
KDR1 122020Z 24017G27KT 40/03 A3003 RMK A01 T04010033  RH  011%=      5-min Rain = 0
KDR1 122025Z 24015G20KT 40/03 A3002 RMK A01 T03960031  RH  011%=      5-min Rain = 0
KDR1 122030Z 25018G26KT 40/04 A3002 RMK A01 T04000035  RH  011%=      5-min Rain = 0
KDR1 122035Z 25017G23KT 40/03 A3002 RMK A01 T04020033  RH  011%=      5-min Rain = 0
KDR1 122040Z 23016KT 40/03 A3002 RMK A01 T04000030  RH  010%=      5-min Rain = 0
KDR1 122045Z 23013G23KT 40/03 A3001 RMK A01 T03970030  RH  011%=      5-min Rain = 0
KDR1 122050Z 23019G25KT 41/03 A3001 RMK A01 T04060034  RH  010%=      5-min Rain = 0
KDR1 122055Z 22012G19KT 40/03 A3001 RMK A01 T04000032  RH  011%=      5-min Rain = 0
KDR1 122100Z 22018G24KT 40/03 A3001 RMK A01 T04030030  RH  010%=      5-min Rain = 0
KDR1 122105Z 24018G23KT 40/03 A3001 RMK A01 T04030027  RH  010%=      5-min Rain = 0
KDR1 122110Z 25016G24KT 41/03 A30 RMK A01 T04050026  RH  010%=      5-min Rain = 0
KDR1 122115Z 24016G22KT 40/03 A30 RMK A01 T04020027  RH  010%=      5-min Rain = 0
KDR1 122120Z 23016G25KT 40/03 A30 RMK A01 T04000027  RH  010%=      5-min Rain = 0
KDR1 122125Z 23017G24KT 40/03 A30 RMK A01 T04020027  RH  010%=      5-min Rain = 0
KDR1 122130Z 23013G19KT 40/03 A30 RMK A01 T04020026  RH  010%=      5-min Rain = 0
KDR1 122135Z 23014G27KT 40/03 A2999 RMK A01 T03990025  RH  010%=      5-min Rain = 0
KDR1 122140Z 23016G26KT 41/03 A2999 RMK A01 T04050027  RH  010%=      5-min Rain = 0
KDR1 122145Z 24016G25KT 40/02 A2999 RMK A01 T04040023  RH  010%=      5-min Rain = 0
KDR1 122150Z 23018G24KT 40/02 A2999 RMK A01 T04040023  RH  010%=      5-min Rain = 0
KDR1 122155Z 24013G19KT 40/02 A2999 RMK A01 T03990023  RH  010%=      5-min Rain = 0
KDR1 122200Z 25014G19KT 40/03 A2999 RMK A01 T04010025  RH  010%=      5-min Rain = 0
KDR1 122205Z 25016G22KT 41/02 A2999 RMK A01 T04060023  RH  010%=      5-min Rain = 0
KDR1 122210Z 25017G26KT 40/02 A2998 RMK A01 T04010019  RH  010%=      5-min Rain = 0
KDR1 122215Z 20016G22KT 40/02 A2998 RMK A01 T04040019  RH  009%=      5-min Rain = 0
KDR1 122220Z 20017KT 41/02 A2998 RMK A01 T04070018  RH  009%=      5-min Rain = 0
KDR1 122225Z 23015G22KT 40/02 A2998 RMK A01 T04030015  RH  009%=      5-min Rain = 0
KDR1 122230Z 23016G21KT 40/02 A2998 RMK A01 T04040016  RH  009%=      5-min Rain = 0
KDR1 122235Z 23014G22KT 40/01 A2998 RMK A01 T03990014  RH  009%=      5-min Rain = 0
KDR1 122240Z 23015G21KT 41/02 A2998 RMK A01 T04060016  RH  009%=      5-min Rain = 0
KDR1 122245Z 22013G19KT 40/01 A2998 RMK A01 T04020012  RH  009%=      5-min Rain = 0
KDR1 122250Z 23013KT 40/01 A2998 RMK A01 T04040012  RH  009%=      5-min Rain = 0
KDR1 122255Z 23014G22KT 40/01 A2998 RMK A01 T04030010  RH  009%=      5-min Rain = 0
KDR1 122300Z 23013G22KT 40/01 A2998 RMK A01 T04020009  RH  009%=      5-min Rain = 0
KDR1 122305Z 21011G16KT 40/01 A2998 RMK A01 T04020009  RH  009%=      5-min Rain = 0
KDR1 122310Z 23015G22KT 40/01 A2998 RMK A01 T04020009  RH  009%=      5-min Rain = 0
KDR1 122315Z 21014KT 40/01 A2998 RMK A01 T04020008  RH  009%=      5-min Rain = 0
KDR1 122320Z 22016G21KT 40/01 A2998 RMK A01 T03990007  RH  009%=      5-min Rain = 0
KDR1 122325Z 24017KT 40/01 A2997 RMK A01 T04010008  RH  009%=      5-min Rain = 0
KDR1 122330Z 21011G20KT 39/00 A2997 RMK A01 T03900004  RH  009%=      5-min Rain = 0
KDR1 122335Z 22017G23KT 39/01 A2997 RMK A01 T03900005  RH  009%=      5-min Rain = 0
KDR1 122340Z 21012G17KT 39/00 A2997 RMK A01 T03870004  RH  009%=      5-min Rain = 0
KDR1 122345Z 20014G19KT 39/00 A2997 RMK A01 T03860004  RH  009%=      5-min Rain = 0
KDR1 122350Z 21013KT 38/00 A2997 RMK A01 T03840004  RH  009%=      5-min Rain = 0
KDR1 122355Z 22016KT 38/01 A2997 RMK A01 T03830005  RH  010%=      5-min Rain = 0
KDR1 130000Z 22017G22KT 38/00 A2997 RMK A01 T03800003  RH  010%=      5-min Rain = 0
KDR1 130005Z 21018KT 38/00 A2997 RMK A01 T03780004  RH  010%=      5-min Rain = 0
KDR1 130010Z 22018G23KT 38/00 A2997 RMK A01 T03760004  RH  010%=      5-min Rain = 0
KDR1 130015Z 22016KT 37/01 A2997 RMK A01 T03740005  RH  010%=      5-min Rain = 0
KDR1 130020Z 21014KT 37/01 A2997 RMK A01 T03720005  RH  010%=      5-min Rain = 0
KDR1 130025Z 22017G23KT 37/00 A2997 RMK A01 T03720004  RH  010%=      5-min Rain = 0
KDR1 130030Z 22015KT 37/00 A2997 RMK A01 T03710004  RH  010%=      5-min Rain = 0
KDR1 130035Z 22015KT 37/00 A2997 RMK A01 T03700004  RH  010%=      5-min Rain = 0
KDR1 130040Z 22016KT 37/00 A2998 RMK A01 T03700004  RH  010%=      5-min Rain = 0
KDR1 130045Z 22016KT 37/00 A2998 RMK A01 T03690004  RH  010%=      5-min Rain = 0
KDR1 130050Z 22012KT 37/01 A2998 RMK A01 T03670006  RH  010%=      5-min Rain = 0
KDR1 130055Z 22012G17KT 37/01 A2998 RMK A01 T03660005  RH  010%=      5-min Rain = 0
KDR1 130100Z 22014KT 37/00 A2998 RMK A01 T03660002  RH  010%=      5-min Rain = 0
KDR1 130105Z 22014KT 37/00 A2999 RMK A01 T03650002  RH  010%=      5-min Rain = 0
KDR1 130110Z 22012KT 36/00 A2999 RMK A01 T03620002  RH  010%=      5-min Rain = 0
KDR1 130115Z 22012KT 36/00 A2999 RMK A01 T03600002  RH  011%=      5-min Rain = 0
KDR1 130120Z 22012KT 36/00 A2999 RMK A01 T03590003  RH  011%=      5-min Rain = 0
KDR1 130125Z 22012KT 36/00 A2999 RMK A01 T03580003  RH  011%=      5-min Rain = 0
KDR1 130130Z 23011KT 36/01 A2999 RMK A01 T03560005  RH  011%=      5-min Rain = 0
KDR1 130135Z 23011KT 35/01 A2999 RMK A01 T03540006  RH  011%=      5-min Rain = 0
KDR1 130140Z 23011KT 35/01 A30 RMK A01 T03520006  RH  011%=      5-min Rain = 0
KDR1 130145Z 24010KT 35/01 A30 RMK A01 T03490007  RH  012%=      5-min Rain = 0
KDR1 130150Z 24010KT 35/01 A30 RMK A01 T03470007  RH  012%=      5-min Rain = 0
KDR1 130155Z 24009KT 35/01 A30 RMK A01 T03460008  RH  012%=      5-min Rain = 0
KDR1 130200Z 25009KT 34/01 A3001 RMK A01 T03440009  RH  012%=      5-min Rain = 0
KDR1 130205Z 29010G17KT 34/01 A3002 RMK A01 T03440010  RH  012%=      5-min Rain = 0
KDR1 130210Z 32017G25KT 33/06 A3003 RMK A01 T03330056  RH  018%=      5-min Rain = 0
KDR1 130215Z 32014G21KT 33/07 A3003 RMK A01 T03270074  RH  021%=      5-min Rain = 0
KDR1 130220Z 32014G19KT 33/08 A3003 RMK A01 T03250077  RH  022%=      5-min Rain = 0
KDR1 130225Z 32019G25KT 33/08 A3003 RMK A01 T03250076  RH  022%=      5-min Rain = 0
KDR1 130230Z 33020G26KT 33/07 A3003 RMK A01 T03250074  RH  022%=      5-min Rain = 0
KDR1 130235Z 34017G23KT 32/07 A3003 RMK A01 T03240072  RH  021%=      5-min Rain = 0
KDR1 130240Z 33016G24KT 33/06 A3002 RMK A01 T03300058  RH  019%=      5-min Rain = 0
KDR1 130245Z 34020G25KT 33/07 A3003 RMK A01 T03270067  RH  020%=      5-min Rain = 0
KDR1 130250Z 35012G17KT 32/07 A3003 RMK A01 T03240068  RH  021%=      5-min Rain = 0
KDR1 130255Z 33010KT 32/07 A3003 RMK A01 T03210067  RH  021%=      5-min Rain = 0
KDR1 130300Z 33008KT 32/07 A3002 RMK A01 T03180066  RH  021%=      5-min Rain = 0
KDR1 130305Z 32009KT 32/06 A3002 RMK A01 T03170063  RH  021%=      5-min Rain = 0
KDR1 130310Z 33008KT 32/06 A3002 RMK A01 T03180059  RH  020%=      5-min Rain = 0
KDR1 130315Z 33011KT 32/06 A3002 RMK A01 T03190056  RH  020%=      5-min Rain = 0
KDR1 130320Z 33009KT 32/06 A3002 RMK A01 T03180056  RH  020%=      5-min Rain = 0
KDR1 130325Z 32009KT 32/06 A3003 RMK A01 T03170055  RH  020%=      5-min Rain = 0
KDR1 130330Z 34009KT 32/06 A3003 RMK A01 T03160055  RH  020%=      5-min Rain = 0
KDR1 130335Z 34007KT 31/06 A3003 RMK A01 T03120056  RH  020%=      5-min Rain = 0
KDR1 130340Z 33003KT 31/06 A3003 RMK A01 T03120056  RH  020%=      5-min Rain = 0
KDR1 130345Z 31002KT 31/06 A3003 RMK A01 T03100057  RH  021%=      5-min Rain = 0
KDR1 130350Z 29002KT 31/06 A3003 RMK A01 T03070059  RH  021%=      5-min Rain = 0
KDR1 130355Z 27002KT 31/06 A3003 RMK A01 T03060058  RH  022%=      5-min Rain = 0
KDR1 130400Z 23002KT 31/06 A3004 RMK A01 T03090057  RH  021%=      5-min Rain = 0
KDR1 130405Z 20005KT 30/06 A3004 RMK A01 T02990058  RH  022%=      5-min Rain = 0
KDR1 130410Z 19004KT 29/06 A3004 RMK A01 T02930061  RH  024%=      5-min Rain = 0
KDR1 130415Z 19005KT 29/06 A3004 RMK A01 T02900061  RH  024%=      5-min Rain = 0
KDR1 130420Z 20006KT 29/06 A3005 RMK A01 T02890061  RH  024%=      5-min Rain = 0
KDR1 130425Z 21006KT 29/06 A3005 RMK A01 T02920063  RH  024%=      5-min Rain = 0
KDR1 130430Z 23008KT 29/06 A3005 RMK A01 T02940064  RH  024%=      5-min Rain = 0
KDR1 130435Z 24010KT 29/07 A3006 RMK A01 T02900067  RH  025%=      5-min Rain = 0
KDR1 130440Z 23012KT 29/07 A3006 RMK A01 T02890067  RH  025%=      5-min Rain = 0
KDR1 130445Z 23012KT 30/06 A3006 RMK A01 T02950063  RH  024%=      5-min Rain = 0
KDR1 130450Z 22014KT 30/06 A3005 RMK A01 T03010061  RH  023%=      5-min Rain = 0
KDR1 130455Z 23013KT 31/06 A3005 RMK A01 T03050061  RH  022%=      5-min Rain = 0

Page generated in 0.0092 seconds.